Terminal Aerodrome Forecast
Issued by NWS

Current Version | Previous Version | Graphics & Text | Print | Product List | Glossary On
Versions: 1 2 3 4 5 6 7 8 9 10 11 12 13 14 15 16 17 18 19 20
000
FTUS41 KILN 182000 AAA
TAFLUK
TAF AMD
KLUK 182057Z 1821/1918 32005KT P6SM -SN BKN028 OVC090
     FM190000 33004KT P6SM OVC060
     FM190700 35004KT P6SM OVC026
     FM191600 00000KT P6SM SCT026 OVC200=

USA.gov is the U.S. government's official web portal to all federal, state and local government web resources and services.